sensor_id;sensor_type;location;lat;lon;timestamp;P1;durP1;ratioP1;P2;durP2;ratioP2
11642;SDS011;5877;50.930;6.918;2022-08-19T00:02:08;7.13;;;6.53;;
11642;SDS011;5877;50.930;6.918;2022-08-19T00:04:36;10.23;;;7.40;;
11642;SDS011;5877;50.930;6.918;2022-08-19T00:07:04;7.93;;;7.23;;
11642;SDS011;5877;50.930;6.918;2022-08-19T00:09:32;7.77;;;7.07;;
11642;SDS011;5877;50.930;6.918;2022-08-19T00:12:01;7.60;;;6.77;;
11642;SDS011;5877;50.930;6.918;2022-08-19T00:14:29;7.63;;;6.93;;
11642;SDS011;5877;50.930;6.918;2022-08-19T00:17:00;7.60;;;6.90;;
11642;SDS011;5877;50.930;6.918;2022-08-19T00:19:29;9.03;;;6.93;;
11642;SDS011;5877;50.930;6.918;2022-08-19T00:21:56;7.73;;;7.10;;
11642;SDS011;5877;50.930;6.918;2022-08-19T00:24:23;10.20;;;7.33;;
11642;SDS011;5877;50.930;6.918;2022-08-19T00:26:53;7.33;;;6.60;;
11642;SDS011;5877;50.930;6.918;2022-08-19T00:29:21;8.30;;;6.87;;
11642;SDS011;5877;50.930;6.918;2022-08-19T00:31:49;9.93;;;6.70;;
11642;SDS011;5877;50.930;6.918;2022-08-19T00:34:20;7.73;;;6.93;;
11642;SDS011;5877;50.930;6.918;2022-08-19T00:36:48;7.50;;;6.90;;
11642;SDS011;5877;50.930;6.918;2022-08-19T00:39:16;8.43;;;7.57;;
11642;SDS011;5877;50.930;6.918;2022-08-19T00:41:44;8.83;;;7.57;;
11642;SDS011;5877;50.930;6.918;2022-08-19T00:44:19;7.80;;;7.00;;
11642;SDS011;5877;50.930;6.918;2022-08-19T00:46:54;7.60;;;6.90;;
11642;SDS011;5877;50.930;6.918;2022-08-19T00:51:58;6.83;;;6.23;;
11642;SDS011;5877;50.930;6.918;2022-08-19T00:54:28;7.77;;;6.97;;
11642;SDS011;5877;50.930;6.918;2022-08-19T00:56:58;7.90;;;7.20;;
11642;SDS011;5877;50.930;6.918;2022-08-19T00:59:27;8.00;;;7.10;;
11642;SDS011;5877;50.930;6.918;2022-08-19T01:02:15;7.87;;;7.10;;
11642;SDS011;5877;50.930;6.918;2022-08-19T01:04:43;11.10;;;7.23;;
11642;SDS011;5877;50.930;6.918;2022-08-19T01:07:10;8.77;;;7.53;;
11642;SDS011;5877;50.930;6.918;2022-08-19T01:09:43;10.40;;;7.67;;
11642;SDS011;5877;50.930;6.918;2022-08-19T01:12:11;12.20;;;8.10;;
11642;SDS011;5877;50.930;6.918;2022-08-19T01:14:38;11.70;;;8.70;;
11642;SDS011;5877;50.930;6.918;2022-08-19T01:17:09;10.57;;;8.87;;
11642;SDS011;5877;50.930;6.918;2022-08-19T01:19:39;8.90;;;8.00;;
11642;SDS011;5877;50.930;6.918;2022-08-19T01:22:19;9.47;;;8.50;;
11642;SDS011;5877;50.930;6.918;2022-08-19T01:25:00;9.87;;;8.77;;
11642;SDS011;5877;50.930;6.918;2022-08-19T01:27:41;12.07;;;7.87;;
11642;SDS011;5877;50.930;6.918;2022-08-19T01:30:12;9.97;;;7.83;;
11642;SDS011;5877;50.930;6.918;2022-08-19T01:32:42;7.93;;;6.97;;
11642;SDS011;5877;50.930;6.918;2022-08-19T01:35:10;10.03;;;8.57;;
11642;SDS011;5877;50.930;6.918;2022-08-19T01:37:53;10.43;;;8.37;;
11642;SDS011;5877;50.930;6.918;2022-08-19T01:40:22;9.50;;;8.40;;
11642;SDS011;5877;50.930;6.918;2022-08-19T01:42:52;9.70;;;8.67;;
11642;SDS011;5877;50.930;6.918;2022-08-19T01:45:21;9.13;;;8.13;;
11642;SDS011;5877;50.930;6.918;2022-08-19T01:47:49;10.50;;;8.07;;
11642;SDS011;5877;50.930;6.918;2022-08-19T01:50:29;9.63;;;8.23;;
11642;SDS011;5877;50.930;6.918;2022-08-19T01:52:57;12.57;;;8.87;;
11642;SDS011;5877;50.930;6.918;2022-08-19T01:55:33;10.17;;;8.70;;
11642;SDS011;5877;50.930;6.918;2022-08-19T01:58:11;9.77;;;8.67;;
11642;SDS011;5877;50.930;6.918;2022-08-19T02:00:40;10.70;;;8.60;;
11642;SDS011;5877;50.930;6.918;2022-08-19T02:03:07;13.07;;;8.50;;
11642;SDS011;5877;50.930;6.918;2022-08-19T02:05:35;11.60;;;8.70;;
11642;SDS011;5877;50.930;6.918;2022-08-19T02:08:03;15.00;;;9.93;;
11642;SDS011;5877;50.930;6.918;2022-08-19T02:10:31;10.67;;;9.13;;
11642;SDS011;5877;50.930;6.918;2022-08-19T02:12:58;10.77;;;9.43;;
11642;SDS011;5877;50.930;6.918;2022-08-19T02:15:27;13.30;;;9.20;;
11642;SDS011;5877;50.930;6.918;2022-08-19T02:17:54;10.77;;;9.13;;
11642;SDS011;5877;50.930;6.918;2022-08-19T02:20:21;10.40;;;9.40;;
11642;SDS011;5877;50.930;6.918;2022-08-19T02:22:51;11.10;;;9.47;;
11642;SDS011;5877;50.930;6.918;2022-08-19T02:25:19;9.93;;;8.80;;
11642;SDS011;5877;50.930;6.918;2022-08-19T02:27:50;10.30;;;9.17;;
11642;SDS011;5877;50.930;6.918;2022-08-19T02:30:17;10.40;;;9.37;;
11642;SDS011;5877;50.930;6.918;2022-08-19T02:32:45;14.30;;;10.60;;
11642;SDS011;5877;50.930;6.918;2022-08-19T02:35:13;11.90;;;10.00;;
11642;SDS011;5877;50.930;6.918;2022-08-19T02:37:41;15.23;;;9.90;;
11642;SDS011;5877;50.930;6.918;2022-08-19T02:40:30;11.03;;;9.60;;
11642;SDS011;5877;50.930;6.918;2022-08-19T02:43:03;11.00;;;9.20;;
11642;SDS011;5877;50.930;6.918;2022-08-19T02:45:36;12.70;;;9.80;;
11642;SDS011;5877;50.930;6.918;2022-08-19T02:48:07;10.90;;;9.23;;
11642;SDS011;5877;50.930;6.918;2022-08-19T02:50:47;11.80;;;8.97;;
11642;SDS011;5877;50.930;6.918;2022-08-19T02:53:22;11.07;;;9.30;;
11642;SDS011;5877;50.930;6.918;2022-08-19T02:55:51;14.10;;;9.80;;
11642;SDS011;5877;50.930;6.918;2022-08-19T02:58:19;12.57;;;9.37;;
11642;SDS011;5877;50.930;6.918;2022-08-19T03:00:49;12.07;;;10.07;;
11642;SDS011;5877;50.930;6.918;2022-08-19T03:03:18;13.07;;;9.60;;
11642;SDS011;5877;50.930;6.918;2022-08-19T03:05:45;10.53;;;9.37;;
11642;SDS011;5877;50.930;6.918;2022-08-19T03:08:23;11.30;;;9.43;;
11642;SDS011;5877;50.930;6.918;2022-08-19T03:10:52;10.73;;;9.63;;
11642;SDS011;5877;50.930;6.918;2022-08-19T03:13:20;13.80;;;10.20;;
11642;SDS011;5877;50.930;6.918;2022-08-19T03:15:48;11.30;;;9.93;;
11642;SDS011;5877;50.930;6.918;2022-08-19T03:18:15;10.30;;;9.30;;
11642;SDS011;5877;50.930;6.918;2022-08-19T03:20:44;11.33;;;9.40;;
11642;SDS011;5877;50.930;6.918;2022-08-19T03:23:14;11.43;;;9.67;;
11642;SDS011;5877;50.930;6.918;2022-08-19T03:25:44;11.03;;;9.63;;
11642;SDS011;5877;50.930;6.918;2022-08-19T03:28:29;14.27;;;11.10;;
11642;SDS011;5877;50.930;6.918;2022-08-19T03:31:02;11.60;;;10.47;;
11642;SDS011;5877;50.930;6.918;2022-08-19T03:33:51;13.33;;;11.30;;
11642;SDS011;5877;50.930;6.918;2022-08-19T03:36:22;12.20;;;11.00;;
11642;SDS011;5877;50.930;6.918;2022-08-19T03:38:54;11.90;;;10.33;;
11642;SDS011;5877;50.930;6.918;2022-08-19T03:41:27;11.90;;;10.00;;
11642;SDS011;5877;50.930;6.918;2022-08-19T03:44:10;13.27;;;10.23;;
11642;SDS011;5877;50.930;6.918;2022-08-19T03:46:44;12.23;;;11.03;;
11642;SDS011;5877;50.930;6.918;2022-08-19T03:49:12;12.03;;;10.53;;
11642;SDS011;5877;50.930;6.918;2022-08-19T03:51:40;13.60;;;10.73;;
11642;SDS011;5877;50.930;6.918;2022-08-19T03:54:09;10.77;;;9.67;;
11642;SDS011;5877;50.930;6.918;2022-08-19T03:56:38;12.30;;;10.60;;
11642;SDS011;5877;50.930;6.918;2022-08-19T03:59:07;12.97;;;10.90;;
11642;SDS011;5877;50.930;6.918;2022-08-19T04:01:40;12.90;;;11.60;;
11642;SDS011;5877;50.930;6.918;2022-08-19T04:04:08;15.47;;;11.67;;
11642;SDS011;5877;50.930;6.918;2022-08-19T04:06:38;13.33;;;10.77;;
11642;SDS011;5877;50.930;6.918;2022-08-19T04:09:07;14.17;;;11.03;;
11642;SDS011;5877;50.930;6.918;2022-08-19T04:11:36;11.93;;;10.73;;
11642;SDS011;5877;50.930;6.918;2022-08-19T04:14:18;14.53;;;11.20;;
11642;SDS011;5877;50.930;6.918;2022-08-19T04:16:48;13.43;;;11.67;;
11642;SDS011;5877;50.930;6.918;2022-08-19T04:19:16;13.17;;;11.60;;
11642;SDS011;5877;50.930;6.918;2022-08-19T04:21:45;13.50;;;11.73;;
11642;SDS011;5877;50.930;6.918;2022-08-19T04:24:13;14.73;;;11.03;;
11642;SDS011;5877;50.930;6.918;2022-08-19T04:26:41;13.20;;;11.63;;
11642;SDS011;5877;50.930;6.918;2022-08-19T04:29:10;14.27;;;12.03;;
11642;SDS011;5877;50.930;6.918;2022-08-19T04:31:43;13.80;;;12.40;;
11642;SDS011;5877;50.930;6.918;2022-08-19T04:34:12;14.80;;;13.10;;
11642;SDS011;5877;50.930;6.918;2022-08-19T04:36:41;15.07;;;13.47;;
11642;SDS011;5877;50.930;6.918;2022-08-19T04:39:12;15.30;;;12.43;;
11642;SDS011;5877;50.930;6.918;2022-08-19T04:41:43;15.87;;;13.23;;
11642;SDS011;5877;50.930;6.918;2022-08-19T04:44:31;18.30;;;14.90;;
11642;SDS011;5877;50.930;6.918;2022-08-19T04:47:01;18.87;;;16.93;;
11642;SDS011;5877;50.930;6.918;2022-08-19T04:49:40;20.60;;;15.77;;
11642;SDS011;5877;50.930;6.918;2022-08-19T04:52:07;18.80;;;15.67;;
11642;SDS011;5877;50.930;6.918;2022-08-19T04:54:36;18.20;;;15.00;;
11642;SDS011;5877;50.930;6.918;2022-08-19T04:57:09;21.60;;;18.13;;
11642;SDS011;5877;50.930;6.918;2022-08-19T04:59:39;20.97;;;18.77;;
11642;SDS011;5877;50.930;6.918;2022-08-19T05:02:07;20.43;;;18.20;;
11642;SDS011;5877;50.930;6.918;2022-08-19T05:04:35;23.37;;;20.43;;
11642;SDS011;5877;50.930;6.918;2022-08-19T05:07:07;31.70;;;28.47;;
11642;SDS011;5877;50.930;6.918;2022-08-19T05:09:34;28.23;;;25.40;;
11642;SDS011;5877;50.930;6.918;2022-08-19T05:12:22;24.23;;;21.93;;
11642;SDS011;5877;50.930;6.918;2022-08-19T05:14:55;22.87;;;20.57;;
11642;SDS011;5877;50.930;6.918;2022-08-19T05:17:24;22.53;;;20.13;;
11642;SDS011;5877;50.930;6.918;2022-08-19T05:19:56;25.30;;;22.37;;
11642;SDS011;5877;50.930;6.918;2022-08-19T05:22:43;24.43;;;21.60;;
11642;SDS011;5877;50.930;6.918;2022-08-19T05:25:14;23.83;;;21.53;;
11642;SDS011;5877;50.930;6.918;2022-08-19T05:27:45;23.30;;;20.90;;
11642;SDS011;5877;50.930;6.918;2022-08-19T05:30:13;23.23;;;20.93;;
11642;SDS011;5877;50.930;6.918;2022-08-19T05:32:42;23.97;;;21.40;;
11642;SDS011;5877;50.930;6.918;2022-08-19T05:35:09;27.03;;;24.43;;
11642;SDS011;5877;50.930;6.918;2022-08-19T05:37:38;25.63;;;23.23;;
11642;SDS011;5877;50.930;6.918;2022-08-19T05:40:10;26.13;;;23.33;;
11642;SDS011;5877;50.930;6.918;2022-08-19T05:42:37;26.30;;;23.60;;
11642;SDS011;5877;50.930;6.918;2022-08-19T05:45:05;23.50;;;21.27;;
11642;SDS011;5877;50.930;6.918;2022-08-19T05:47:33;24.73;;;22.33;;
11642;SDS011;5877;50.930;6.918;2022-08-19T05:50:08;25.40;;;22.90;;
11642;SDS011;5877;50.930;6.918;2022-08-19T05:52:36;25.10;;;22.60;;
11642;SDS011;5877;50.930;6.918;2022-08-19T05:55:10;25.97;;;23.47;;
11642;SDS011;5877;50.930;6.918;2022-08-19T05:57:37;23.83;;;21.33;;
11642;SDS011;5877;50.930;6.918;2022-08-19T06:00:05;25.03;;;22.40;;
11642;SDS011;5877;50.930;6.918;2022-08-19T06:02:37;24.70;;;22.10;;
11642;SDS011;5877;50.930;6.918;2022-08-19T06:05:05;27.47;;;24.50;;
11642;SDS011;5877;50.930;6.918;2022-08-19T06:07:36;23.03;;;20.70;;
11642;SDS011;5877;50.930;6.918;2022-08-19T06:10:05;25.10;;;22.60;;
11642;SDS011;5877;50.930;6.918;2022-08-19T06:12:34;23.37;;;20.97;;
11642;SDS011;5877;50.930;6.918;2022-08-19T06:15:03;25.80;;;21.77;;
11642;SDS011;5877;50.930;6.918;2022-08-19T06:17:34;23.93;;;20.30;;
11642;SDS011;5877;50.930;6.918;2022-08-19T06:20:05;24.70;;;21.33;;
11642;SDS011;5877;50.930;6.918;2022-08-19T06:22:39;22.70;;;20.30;;
11642;SDS011;5877;50.930;6.918;2022-08-19T06:25:07;21.80;;;19.77;;
11642;SDS011;5877;50.930;6.918;2022-08-19T06:27:41;22.37;;;20.17;;
11642;SDS011;5877;50.930;6.918;2022-08-19T06:30:29;23.20;;;21.00;;
11642;SDS011;5877;50.930;6.918;2022-08-19T06:32:56;24.07;;;21.70;;
11642;SDS011;5877;50.930;6.918;2022-08-19T06:35:23;20.93;;;18.93;;
11642;SDS011;5877;50.930;6.918;2022-08-19T06:37:50;22.63;;;20.03;;
11642;SDS011;5877;50.930;6.918;2022-08-19T06:40:19;21.83;;;19.53;;
11642;SDS011;5877;50.930;6.918;2022-08-19T06:42:47;22.63;;;20.27;;
11642;SDS011;5877;50.930;6.918;2022-08-19T06:45:21;22.50;;;20.30;;
11642;SDS011;5877;50.930;6.918;2022-08-19T06:48:00;23.80;;;21.43;;
11642;SDS011;5877;50.930;6.918;2022-08-19T06:50:28;22.53;;;20.27;;
11642;SDS011;5877;50.930;6.918;2022-08-19T06:52:56;21.90;;;19.80;;
11642;SDS011;5877;50.930;6.918;2022-08-19T06:55:30;23.05;;;20.63;;
11642;SDS011;5877;50.930;6.918;2022-08-19T06:58:01;22.02;;;19.98;;
11642;SDS011;5877;50.930;6.918;2022-08-19T07:00:30;20.40;;;18.52;;
11642;SDS011;5877;50.930;6.918;2022-08-19T07:02:57;17.55;;;15.75;;
11642;SDS011;5877;50.930;6.918;2022-08-19T07:05:31;17.88;;;16.13;;
11642;SDS011;5877;50.930;6.918;2022-08-19T07:07:59;18.10;;;16.23;;
11642;SDS011;5877;50.930;6.918;2022-08-19T07:10:31;21.52;;;19.27;;
11642;SDS011;5877;50.930;6.918;2022-08-19T07:12:59;22.75;;;20.55;;
11642;SDS011;5877;50.930;6.918;2022-08-19T07:15:26;20.10;;;17.92;;
11642;SDS011;5877;50.930;6.918;2022-08-19T07:17:56;19.90;;;17.75;;
11642;SDS011;5877;50.930;6.918;2022-08-19T07:20:23;22.15;;;19.80;;
11642;SDS011;5877;50.930;6.918;2022-08-19T07:22:54;20.85;;;18.83;;
11642;SDS011;5877;50.930;6.918;2022-08-19T07:25:21;21.05;;;19.13;;
11642;SDS011;5877;50.930;6.918;2022-08-19T07:27:58;21.02;;;18.35;;
11642;SDS011;5877;50.930;6.918;2022-08-19T07:30:27;17.80;;;16.20;;
11642;SDS011;5877;50.930;6.918;2022-08-19T07:32:56;20.33;;;18.42;;
11642;SDS011;5877;50.930;6.918;2022-08-19T07:35:23;21.43;;;18.37;;
11642;SDS011;5877;50.930;6.918;2022-08-19T07:37:54;21.23;;;18.77;;
11642;SDS011;5877;50.930;6.918;2022-08-19T07:40:21;21.97;;;19.70;;
11642;SDS011;5877;50.930;6.918;2022-08-19T07:42:48;21.13;;;19.03;;
11642;SDS011;5877;50.930;6.918;2022-08-19T07:45:15;24.27;;;21.97;;
11642;SDS011;5877;50.930;6.918;2022-08-19T07:47:43;26.43;;;23.77;;
11642;SDS011;5877;50.930;6.918;2022-08-19T07:50:16;26.93;;;24.37;;
11642;SDS011;5877;50.930;6.918;2022-08-19T07:52:46;26.77;;;24.00;;
11642;SDS011;5877;50.930;6.918;2022-08-19T07:55:16;24.57;;;22.07;;
11642;SDS011;5877;50.930;6.918;2022-08-19T07:58:08;22.03;;;19.73;;
11642;SDS011;5877;50.930;6.918;2022-08-19T08:00:35;26.70;;;23.83;;
11642;SDS011;5877;50.930;6.918;2022-08-19T08:03:04;29.77;;;24.60;;
11642;SDS011;5877;50.930;6.918;2022-08-19T08:05:31;28.33;;;23.97;;
11642;SDS011;5877;50.930;6.918;2022-08-19T08:08:16;29.83;;;26.73;;
11642;SDS011;5877;50.930;6.918;2022-08-19T08:11:03;30.87;;;27.67;;
11642;SDS011;5877;50.930;6.918;2022-08-19T08:13:36;33.30;;;27.07;;
11642;SDS011;5877;50.930;6.918;2022-08-19T08:16:04;25.63;;;23.03;;
11642;SDS011;5877;50.930;6.918;2022-08-19T08:18:35;29.23;;;26.20;;
11642;SDS011;5877;50.930;6.918;2022-08-19T08:21:08;31.23;;;28.20;;
11642;SDS011;5877;50.930;6.918;2022-08-19T08:23:35;28.07;;;25.30;;
11642;SDS011;5877;50.930;6.918;2022-08-19T08:26:05;27.23;;;24.40;;
11642;SDS011;5877;50.930;6.918;2022-08-19T08:28:32;27.80;;;24.90;;
11642;SDS011;5877;50.930;6.918;2022-08-19T08:31:06;30.60;;;27.37;;
11642;SDS011;5877;50.930;6.918;2022-08-19T08:33:35;28.80;;;25.47;;
11642;SDS011;5877;50.930;6.918;2022-08-19T08:36:04;29.13;;;25.73;;
11642;SDS011;5877;50.930;6.918;2022-08-19T08:38:32;32.50;;;29.03;;
11642;SDS011;5877;50.930;6.918;2022-08-19T08:41:28;32.13;;;28.77;;
11642;SDS011;5877;50.930;6.918;2022-08-19T08:43:55;32.05;;;28.60;;
11642;SDS011;5877;50.930;6.918;2022-08-19T08:49:04;31.73;;;27.80;;
11642;SDS011;5877;50.930;6.918;2022-08-19T08:54:39;33.90;;;30.40;;
11642;SDS011;5877;50.930;6.918;2022-08-19T08:57:24;34.05;;;30.52;;
11642;SDS011;5877;50.930;6.918;2022-08-19T09:00:07;32.97;;;29.52;;
11642;SDS011;5877;50.930;6.918;2022-08-19T09:02:46;33.20;;;29.00;;
11642;SDS011;5877;50.930;6.918;2022-08-19T09:05:17;29.85;;;26.88;;
11642;SDS011;5877;50.930;6.918;2022-08-19T09:10:37;29.88;;;26.80;;
11642;SDS011;5877;50.930;6.918;2022-08-19T09:13:23;28.70;;;24.08;;
11642;SDS011;5877;50.930;6.918;2022-08-19T09:16:21;23.17;;;20.45;;
11642;SDS011;5877;50.930;6.918;2022-08-19T09:18:56;21.23;;;19.13;;
11642;SDS011;5877;50.930;6.918;2022-08-19T09:21:25;22.30;;;19.90;;
11642;SDS011;5877;50.930;6.918;2022-08-19T09:23:59;22.40;;;20.00;;
11642;SDS011;5877;50.930;6.918;2022-08-19T09:26:31;23.15;;;20.73;;
11642;SDS011;5877;50.930;6.918;2022-08-19T09:29:14;22.55;;;20.15;;
11642;SDS011;5877;50.930;6.918;2022-08-19T09:31:43;24.77;;;22.25;;
11642;SDS011;5877;50.930;6.918;2022-08-19T09:34:15;21.58;;;19.55;;
11642;SDS011;5877;50.930;6.918;2022-08-19T09:36:47;22.80;;;20.75;;
11642;SDS011;5877;50.930;6.918;2022-08-19T09:39:22;22.80;;;19.95;;
11642;SDS011;5877;50.930;6.918;2022-08-19T09:41:49;22.67;;;18.60;;
11642;SDS011;5877;50.930;6.918;2022-08-19T09:44:17;18.55;;;16.13;;
11642;SDS011;5877;50.930;6.918;2022-08-19T09:46:47;19.75;;;17.55;;
11642;SDS011;5877;50.930;6.918;2022-08-19T09:49:15;20.08;;;17.98;;
11642;SDS011;5877;50.930;6.918;2022-08-19T09:51:50;20.08;;;18.08;;
11642;SDS011;5877;50.930;6.918;2022-08-19T09:54:22;17.50;;;14.30;;
11642;SDS011;5877;50.930;6.918;2022-08-19T09:56:54;16.98;;;15.27;;
11642;SDS011;5877;50.930;6.918;2022-08-19T09:59:25;18.30;;;16.40;;
11642;SDS011;5877;50.930;6.918;2022-08-19T10:01:53;16.65;;;14.93;;
11642;SDS011;5877;50.930;6.918;2022-08-19T10:04:29;16.00;;;14.25;;
11642;SDS011;5877;50.930;6.918;2022-08-19T10:07:15;21.00;;;17.30;;
11642;SDS011;5877;50.930;6.918;2022-08-19T10:09:43;16.13;;;14.75;;
11642;SDS011;5877;50.930;6.918;2022-08-19T10:12:12;17.83;;;16.13;;
11642;SDS011;5877;50.930;6.918;2022-08-19T10:14:45;12.27;;;10.95;;
11642;SDS011;5877;50.930;6.918;2022-08-19T10:17:13;12.68;;;11.43;;
11642;SDS011;5877;50.930;6.918;2022-08-19T10:19:47;13.13;;;11.90;;
11642;SDS011;5877;50.930;6.918;2022-08-19T10:22:22;13.27;;;10.63;;
11642;SDS011;5877;50.930;6.918;2022-08-19T10:24:51;12.50;;;10.77;;
11642;SDS011;5877;50.930;6.918;2022-08-19T10:27:20;14.38;;;12.77;;
11642;SDS011;5877;50.930;6.918;2022-08-19T10:29:47;16.80;;;14.57;;
11642;SDS011;5877;50.930;6.918;2022-08-19T10:32:15;16.38;;;14.77;;
11642;SDS011;5877;50.930;6.918;2022-08-19T10:34:43;14.13;;;12.83;;
11642;SDS011;5877;50.930;6.918;2022-08-19T10:37:15;11.73;;;10.60;;
11642;SDS011;5877;50.930;6.918;2022-08-19T10:39:54;14.67;;;13.17;;
11642;SDS011;5877;50.930;6.918;2022-08-19T10:42:21;14.10;;;12.73;;
11642;SDS011;5877;50.930;6.918;2022-08-19T10:44:49;20.87;;;13.33;;
11642;SDS011;5877;50.930;6.918;2022-08-19T10:47:17;13.57;;;10.40;;
11642;SDS011;5877;50.930;6.918;2022-08-19T10:49:52;13.98;;;12.50;;
11642;SDS011;5877;50.930;6.918;2022-08-19T10:52:40;15.30;;;13.87;;
11642;SDS011;5877;50.930;6.918;2022-08-19T10:55:17;15.30;;;13.82;;
11642;SDS011;5877;50.930;6.918;2022-08-19T10:58:10;14.23;;;12.97;;
11642;SDS011;5877;50.930;6.918;2022-08-19T11:00:39;15.60;;;14.00;;
11642;SDS011;5877;50.930;6.918;2022-08-19T11:03:07;15.13;;;12.77;;
11642;SDS011;5877;50.930;6.918;2022-08-19T11:05:35;14.97;;;13.47;;
11642;SDS011;5877;50.930;6.918;2022-08-19T11:08:07;14.90;;;13.50;;
11642;SDS011;5877;50.930;6.918;2022-08-19T11:10:53;13.83;;;12.53;;
11642;SDS011;5877;50.930;6.918;2022-08-19T11:13:27;14.07;;;12.77;;
11642;SDS011;5877;50.930;6.918;2022-08-19T11:16:06;14.43;;;12.97;;
11642;SDS011;5877;50.930;6.918;2022-08-19T11:18:36;11.50;;;10.40;;
11642;SDS011;5877;50.930;6.918;2022-08-19T11:21:11;10.80;;;9.20;;
11642;SDS011;5877;50.930;6.918;2022-08-19T11:23:47;11.07;;;9.70;;
11642;SDS011;5877;50.930;6.918;2022-08-19T11:26:16;11.63;;;10.53;;
11642;SDS011;5877;50.930;6.918;2022-08-19T11:28:44;12.10;;;11.10;;
11642;SDS011;5877;50.930;6.918;2022-08-19T11:31:12;12.37;;;10.53;;
11642;SDS011;5877;50.930;6.918;2022-08-19T11:33:41;11.17;;;9.77;;
11642;SDS011;5877;50.930;6.918;2022-08-19T11:36:13;11.80;;;10.60;;
11642;SDS011;5877;50.930;6.918;2022-08-19T11:38:42;11.43;;;9.57;;
11642;SDS011;5877;50.930;6.918;2022-08-19T11:41:10;8.73;;;7.93;;
11642;SDS011;5877;50.930;6.918;2022-08-19T11:43:38;10.10;;;9.20;;
11642;SDS011;5877;50.930;6.918;2022-08-19T11:46:08;12.23;;;9.70;;
11642;SDS011;5877;50.930;6.918;2022-08-19T11:48:41;10.73;;;9.63;;
11642;SDS011;5877;50.930;6.918;2022-08-19T11:51:11;10.47;;;9.37;;
11642;SDS011;5877;50.930;6.918;2022-08-19T11:53:41;9.57;;;8.67;;
11642;SDS011;5877;50.930;6.918;2022-08-19T11:56:08;8.77;;;7.83;;
11642;SDS011;5877;50.930;6.918;2022-08-19T11:58:36;9.90;;;9.00;;
11642;SDS011;5877;50.930;6.918;2022-08-19T12:01:07;10.23;;;9.23;;
11642;SDS011;5877;50.930;6.918;2022-08-19T12:03:37;10.20;;;8.60;;
11642;SDS011;5877;50.930;6.918;2022-08-19T12:06:05;12.37;;;8.73;;
11642;SDS011;5877;50.930;6.918;2022-08-19T12:08:34;8.70;;;7.90;;
11642;SDS011;5877;50.930;6.918;2022-08-19T12:11:02;9.97;;;8.73;;
11642;SDS011;5877;50.930;6.918;2022-08-19T12:13:31;9.93;;;8.97;;
11642;SDS011;5877;50.930;6.918;2022-08-19T12:15:58;10.33;;;9.30;;
11642;SDS011;5877;50.930;6.918;2022-08-19T12:18:26;10.77;;;8.90;;
11642;SDS011;5877;50.930;6.918;2022-08-19T12:20:54;10.10;;;9.20;;
11642;SDS011;5877;50.930;6.918;2022-08-19T12:23:21;8.40;;;7.60;;
11642;SDS011;5877;50.930;6.918;2022-08-19T12:25:49;10.23;;;9.23;;
11642;SDS011;5877;50.930;6.918;2022-08-19T12:28:20;8.83;;;8.13;;
11642;SDS011;5877;50.930;6.918;2022-08-19T12:30:48;7.73;;;6.83;;
11642;SDS011;5877;50.930;6.918;2022-08-19T12:33:18;8.23;;;7.10;;
11642;SDS011;5877;50.930;6.918;2022-08-19T12:35:51;8.67;;;7.87;;
11642;SDS011;5877;50.930;6.918;2022-08-19T12:38:19;8.77;;;7.80;;
11642;SDS011;5877;50.930;6.918;2022-08-19T12:40:46;9.70;;;8.70;;
11642;SDS011;5877;50.930;6.918;2022-08-19T12:43:15;10.47;;;9.47;;
11642;SDS011;5877;50.930;6.918;2022-08-19T12:45:42;9.23;;;8.33;;
11642;SDS011;5877;50.930;6.918;2022-08-19T12:48:12;12.90;;;8.80;;
11642;SDS011;5877;50.930;6.918;2022-08-19T12:51:01;9.03;;;8.13;;
11642;SDS011;5877;50.930;6.918;2022-08-19T12:53:34;8.70;;;7.73;;
11642;SDS011;5877;50.930;6.918;2022-08-19T12:56:05;8.50;;;7.60;;
11642;SDS011;5877;50.930;6.918;2022-08-19T12:58:39;9.57;;;7.40;;
11642;SDS011;5877;50.930;6.918;2022-08-19T13:01:17;10.13;;;8.93;;
11642;SDS011;5877;50.930;6.918;2022-08-19T13:03:50;9.43;;;8.53;;
11642;SDS011;5877;50.930;6.918;2022-08-19T13:06:20;9.30;;;8.13;;
11642;SDS011;5877;50.930;6.918;2022-08-19T13:08:48;9.87;;;7.40;;
11642;SDS011;5877;50.930;6.918;2022-08-19T13:11:16;8.37;;;7.50;;
11642;SDS011;5877;50.930;6.918;2022-08-19T13:13:47;10.03;;;7.40;;
11642;SDS011;5877;50.930;6.918;2022-08-19T13:16:17;10.63;;;7.90;;
11642;SDS011;5877;50.930;6.918;2022-08-19T13:18:46;8.60;;;6.63;;
11642;SDS011;5877;50.930;6.918;2022-08-19T13:21:14;9.97;;;7.37;;
11642;SDS011;5877;50.930;6.918;2022-08-19T13:23:42;7.43;;;6.67;;
11642;SDS011;5877;50.930;6.918;2022-08-19T13:26:10;7.90;;;7.13;;
11642;SDS011;5877;50.930;6.918;2022-08-19T13:28:38;8.33;;;6.90;;
11642;SDS011;5877;50.930;6.918;2022-08-19T13:31:26;7.60;;;5.80;;
11642;SDS011;5877;50.930;6.918;2022-08-19T13:34:13;7.03;;;6.07;;
11642;SDS011;5877;50.930;6.918;2022-08-19T13:36:42;6.87;;;6.17;;
11642;SDS011;5877;50.930;6.918;2022-08-19T13:39:11;7.73;;;6.50;;
11642;SDS011;5877;50.930;6.918;2022-08-19T13:41:43;10.00;;;6.80;;
11642;SDS011;5877;50.930;6.918;2022-08-19T13:44:14;6.40;;;5.70;;
11642;SDS011;5877;50.930;6.918;2022-08-19T13:46:45;9.20;;;6.70;;
11642;SDS011;5877;50.930;6.918;2022-08-19T13:49:19;7.47;;;6.23;;
11642;SDS011;5877;50.930;6.918;2022-08-19T13:51:47;7.13;;;6.33;;
11642;SDS011;5877;50.930;6.918;2022-08-19T13:54:15;7.33;;;6.20;;
11642;SDS011;5877;50.930;6.918;2022-08-19T13:56:44;10.53;;;6.53;;
11642;SDS011;5877;50.930;6.918;2022-08-19T13:59:12;7.10;;;6.50;;
11642;SDS011;5877;50.930;6.918;2022-08-19T14:01:40;10.47;;;8.13;;
11642;SDS011;5877;50.930;6.918;2022-08-19T14:04:09;10.57;;;7.23;;
11642;SDS011;5877;50.930;6.918;2022-08-19T14:06:36;9.40;;;6.97;;
11642;SDS011;5877;50.930;6.918;2022-08-19T14:09:04;11.00;;;6.27;;
11642;SDS011;5877;50.930;6.918;2022-08-19T14:11:32;10.63;;;6.03;;
11642;SDS011;5877;50.930;6.918;2022-08-19T14:13:59;7.70;;;6.70;;
11642;SDS011;5877;50.930;6.918;2022-08-19T14:16:26;8.63;;;6.73;;
11642;SDS011;5877;50.930;6.918;2022-08-19T14:18:54;6.97;;;6.27;;
11642;SDS011;5877;50.930;6.918;2022-08-19T14:21:23;6.70;;;5.67;;
11642;SDS011;5877;50.930;6.918;2022-08-19T14:23:52;8.90;;;6.30;;
11642;SDS011;5877;50.930;6.918;2022-08-19T14:26:22;7.33;;;6.17;;
11642;SDS011;5877;50.930;6.918;2022-08-19T14:28:50;8.27;;;6.40;;
11642;SDS011;5877;50.930;6.918;2022-08-19T14:31:19;6.43;;;5.80;;
11642;SDS011;5877;50.930;6.918;2022-08-19T14:33:56;6.90;;;6.00;;
11642;SDS011;5877;50.930;6.918;2022-08-19T14:36:23;6.03;;;5.53;;
11642;SDS011;5877;50.930;6.918;2022-08-19T14:38:50;9.93;;;5.80;;
11642;SDS011;5877;50.930;6.918;2022-08-19T14:41:20;6.90;;;6.20;;
11642;SDS011;5877;50.930;6.918;2022-08-19T14:43:50;6.73;;;6.07;;
11642;SDS011;5877;50.930;6.918;2022-08-19T14:46:20;8.97;;;5.63;;
11642;SDS011;5877;50.930;6.918;2022-08-19T14:48:48;7.57;;;4.80;;
11642;SDS011;5877;50.930;6.918;2022-08-19T14:51:18;6.53;;;4.90;;
11642;SDS011;5877;50.930;6.918;2022-08-19T14:53:47;7.67;;;4.87;;
11642;SDS011;5877;50.930;6.918;2022-08-19T14:56:21;4.43;;;3.93;;
11642;SDS011;5877;50.930;6.918;2022-08-19T14:58:50;4.83;;;4.10;;
11642;SDS011;5877;50.930;6.918;2022-08-19T15:01:19;8.33;;;4.20;;
11642;SDS011;5877;50.930;6.918;2022-08-19T15:03:52;4.23;;;3.83;;
11642;SDS011;5877;50.930;6.918;2022-08-19T15:06:24;7.10;;;3.97;;
11642;SDS011;5877;50.930;6.918;2022-08-19T15:08:52;4.13;;;3.73;;
11642;SDS011;5877;50.930;6.918;2022-08-19T15:11:22;5.63;;;3.57;;
11642;SDS011;5877;50.930;6.918;2022-08-19T15:13:51;5.70;;;3.43;;
11642;SDS011;5877;50.930;6.918;2022-08-19T15:16:20;6.00;;;3.63;;
11642;SDS011;5877;50.930;6.918;2022-08-19T15:18:52;4.20;;;3.80;;
11642;SDS011;5877;50.930;6.918;2022-08-19T15:21:23;4.53;;;3.30;;